createdAt,value
2017-07-20T00:00:15.210Z,80.5
2017-07-20T00:01:16.633Z,81.1
2017-07-20T00:02:18.075Z,81.0
2017-07-20T00:03:19.491Z,80.8
2017-07-20T00:04:20.924Z,80.9
2017-07-20T00:05:22.352Z,82.1
2017-07-20T00:06:23.781Z,82.1
2017-07-20T00:07:25.225Z,81.6
2017-07-20T00:08:26.673Z,82.0
2017-07-20T00:09:28.098Z,81.8
2017-07-20T00:10:29.537Z,82.4
2017-07-20T00:11:30.965Z,81.6
2017-07-20T00:12:32.402Z,81.7
2017-07-20T00:13:33.843Z,81.4
2017-07-20T00:14:35.278Z,82.2
2017-07-20T00:15:36.699Z,81.3
2017-07-20T00:16:38.125Z,82.1
2017-07-20T00:17:39.542Z,81.8
2017-07-20T00:18:40.996Z,82.1
2017-07-20T00:19:42.420Z,81.9
2017-07-20T00:20:43.849Z,81.8
2017-07-20T00:21:45.272Z,81.5
2017-07-20T00:22:46.702Z,81.7
2017-07-20T00:23:48.145Z,81.9
2017-07-20T00:24:50.073Z,82.4
2017-07-20T00:25:51.498Z,82.4
2017-07-20T00:26:52.925Z,81.8
2017-07-20T00:27:54.351Z,81.8
2017-07-20T00:28:55.779Z,82.2
2017-07-20T00:29:57.223Z,82.8
2017-07-20T00:30:58.650Z,82.4
2017-07-20T00:32:00.080Z,82.4
2017-07-20T00:33:01.503Z,82.9
2017-07-20T00:34:02.947Z,82.8
2017-07-20T00:35:04.377Z,83.5
2017-07-20T00:36:05.802Z,83.0
2017-07-20T00:37:07.233Z,82.4
2017-07-20T00:38:08.651Z,83.4
2017-07-20T00:39:10.096Z,83.4
2017-07-20T00:40:11.517Z,82.8
2017-07-20T00:41:12.950Z,84.0
2017-07-20T00:42:14.374Z,83.9
2017-07-20T00:43:15.801Z,84.7
2017-07-20T00:44:17.238Z,84.7
2017-07-20T00:45:18.668Z,83.9
2017-07-20T00:46:20.106Z,84.0
2017-07-20T00:47:21.533Z,84.6
2017-07-20T00:48:22.965Z,84.7
2017-07-20T00:49:24.406Z,83.9
2017-07-20T00:50:25.829Z,83.6
2017-07-20T00:51:27.277Z,83.0
2017-07-20T00:52:28.696Z,83.1
2017-07-20T00:53:30.124Z,82.7
2017-07-20T00:54:31.546Z,83.2
2017-07-20T00:55:32.973Z,82.8
2017-07-20T00:56:34.415Z,83.3
2017-07-20T00:57:35.842Z,83.6
2017-07-20T00:58:37.265Z,83.5
2017-07-20T00:59:38.696Z,83.5
2017-07-20T01:00:40.123Z,83.6
2017-07-20T01:01:41.583Z,84.6
2017-07-20T01:02:43.001Z,84.9
2017-07-20T01:03:44.449Z,85.8
2017-07-20T01:04:45.858Z,85.8
2017-07-20T01:05:47.286Z,87.9
2017-07-20T01:06:48.728Z,88.9
2017-07-20T01:07:50.164Z,89.7
2017-07-20T01:08:51.595Z,90.4
2017-07-20T01:09:53.032Z,91.0
2017-07-20T01:10:54.453Z,93.1
2017-07-20T01:11:55.880Z,93.6
2017-07-20T01:12:57.332Z,94.4
2017-07-20T01:13:58.765Z,95.3
2017-07-20T01:15:00.191Z,95.2
2017-07-20T01:16:01.620Z,95.0
2017-07-20T01:17:03.050Z,95.8
2017-07-20T01:18:04.489Z,97.6
2017-07-20T01:19:05.923Z,97.6
2017-07-20T01:20:07.351Z,98.1
2017-07-20T01:21:08.771Z,97.4
2017-07-20T01:22:10.197Z,98.0
2017-07-20T01:23:11.645Z,98.2
2017-07-20T01:24:13.071Z,98.1
2017-07-20T01:25:14.498Z,98.7
2017-07-20T01:26:15.931Z,99.9
2017-07-20T01:27:17.355Z,98.1
2017-07-20T01:28:18.798Z,96.1
2017-07-20T01:29:20.225Z,96.1
2017-07-20T01:30:21.651Z,94.2
2017-07-20T01:31:23.081Z,93.3
2017-07-20T01:32:24.508Z,91.9
2017-07-20T01:33:25.953Z,91.4
2017-07-20T01:34:27.372Z,92.5
2017-07-20T01:35:28.798Z,93.2
2017-07-20T01:36:30.228Z,94.4
2017-07-20T01:37:31.654Z,93.0
2017-07-20T01:38:33.092Z,94.5
2017-07-20T01:39:34.534Z,94.1
2017-07-20T01:40:35.956Z,94.3
2017-07-20T01:41:37.384Z,94.5
2017-07-20T01:42:38.809Z,94.3
2017-07-20T01:43:40.259Z,93.5
2017-07-20T01:44:41.685Z,94.6
2017-07-20T01:45:43.114Z,94.4
2017-07-20T01:46:44.543Z,96.5
2017-07-20T01:47:45.969Z,96.3
2017-07-20T01:48:47.409Z,97.7
2017-07-20T01:49:48.834Z,97.4
2017-07-20T01:50:50.256Z,97.4
2017-07-20T01:51:51.681Z,94.4
2017-07-20T01:52:53.108Z,96.8
2017-07-20T01:53:54.551Z,97.6
2017-07-20T01:54:55.977Z,97.7
2017-07-20T01:55:57.406Z,94.4
2017-07-20T01:56:58.826Z,95.3
2017-07-20T01:58:00.254Z,95.9
2017-07-20T01:59:01.700Z,97.2
2017-07-20T02:00:03.126Z,98.3
2017-07-20T02:01:04.556Z,97.8
2017-07-20T02:02:05.975Z,98.2
2017-07-20T02:03:07.402Z,98.2
2017-07-20T02:04:08.848Z,96.1
2017-07-20T02:05:10.277Z,96.3
2017-07-20T02:06:11.715Z,97.4
2017-07-20T02:07:13.144Z,97.0
2017-07-20T02:08:14.569Z,97.7
2017-07-20T02:09:16.019Z,95.9
2017-07-20T02:10:17.444Z,96.3
2017-07-20T02:11:18.872Z,95.5
2017-07-20T02:12:20.294Z,95.5
2017-07-20T02:13:21.736Z,93.2
2017-07-20T02:14:23.170Z,94.0
2017-07-20T02:15:24.620Z,95.5
2017-07-20T02:16:26.074Z,93.4
2017-07-20T02:17:27.482Z,93.8
2017-07-20T02:18:28.906Z,92.6
2017-07-20T02:19:30.351Z,92.6
2017-07-20T02:20:31.776Z,94.1
2017-07-20T02:21:33.201Z,93.5
2017-07-20T02:22:34.648Z,94.6
2017-07-20T02:23:36.069Z,95.0
2017-07-20T02:24:37.507Z,95.3
2017-07-20T02:25:38.947Z,95.4
2017-07-20T02:26:40.373Z,94.8
2017-07-20T02:27:41.801Z,95.4
2017-07-20T02:28:43.229Z,95.0
2017-07-20T02:29:44.658Z,94.8
2017-07-20T02:30:46.105Z,94.7
2017-07-20T02:31:47.537Z,94.8
2017-07-20T02:32:48.959Z,94.2
2017-07-20T02:33:50.385Z,95.8
2017-07-20T02:34:51.805Z,95.5
2017-07-20T02:35:53.249Z,94.3
2017-07-20T02:36:54.672Z,94.3
2017-07-20T02:37:56.106Z,94.8
2017-07-20T02:38:57.528Z,94.8
2017-07-20T02:39:58.953Z,96.7
2017-07-20T02:41:00.395Z,96.6
2017-07-20T02:42:01.850Z,97.6
2017-07-20T02:43:03.252Z,97.2
2017-07-20T02:44:04.689Z,97.4
2017-07-20T02:45:06.125Z,98.0
2017-07-20T02:46:07.569Z,97.6
2017-07-20T02:47:08.999Z,97.7
2017-07-20T02:48:10.432Z,98.1
2017-07-20T02:49:11.862Z,96.6
2017-07-20T02:50:13.297Z,98.1
2017-07-20T02:51:14.745Z,98.1
2017-07-20T02:52:16.173Z,98.1
2017-07-20T02:53:17.596Z,97.5
2017-07-20T02:54:19.025Z,97.7
2017-07-20T02:55:20.460Z,97.3
2017-07-20T02:56:21.902Z,97.9
2017-07-20T02:57:23.328Z,97.5
2017-07-20T02:58:24.764Z,96.7
2017-07-20T02:59:26.188Z,94.4
2017-07-20T03:00:27.613Z,95.2
2017-07-20T03:01:29.070Z,93.7
2017-07-20T03:02:30.497Z,95.6
2017-07-20T03:03:31.924Z,96.5
2017-07-20T03:04:33.376Z,94.3
2017-07-20T03:05:34.802Z,96.9
2017-07-20T03:06:36.238Z,98.1
2017-07-20T03:07:37.673Z,97.7
2017-07-20T03:08:39.099Z,98.1
2017-07-20T03:09:40.540Z,98.0
2017-07-20T03:10:41.969Z,98.2
2017-07-20T03:11:43.394Z,97.7
2017-07-20T03:12:44.818Z,98.1
2017-07-20T03:13:46.265Z,97.7
2017-07-20T03:14:47.688Z,96.0
2017-07-20T03:15:49.129Z,94.3
2017-07-20T03:16:50.554Z,94.5
2017-07-20T03:17:51.983Z,95.4
2017-07-20T03:18:53.406Z,94.8
2017-07-20T03:19:54.838Z,94.1
2017-07-20T03:20:56.284Z,92.6
2017-07-20T03:21:57.714Z,91.5
2017-07-20T03:22:59.126Z,94.0
2017-07-20T03:24:00.557Z,95.4
2017-07-20T03:25:01.983Z,96.0
2017-07-20T03:26:03.425Z,93.0
2017-07-20T03:27:04.860Z,94.7
2017-07-20T03:28:06.294Z,93.3
2017-07-20T03:29:07.719Z,91.7
2017-07-20T03:30:09.160Z,94.1
2017-07-20T03:31:10.603Z,96.0
2017-07-20T03:32:12.054Z,96.2
2017-07-20T03:33:13.498Z,96.3
2017-07-20T03:34:14.923Z,95.1
2017-07-20T03:35:16.361Z,96.6
2017-07-20T03:36:17.798Z,97.3
2017-07-20T03:37:19.235Z,95.6
2017-07-20T03:38:20.660Z,96.1
2017-07-20T03:39:22.093Z,95.7
2017-07-20T03:40:23.527Z,97.5
2017-07-20T03:41:24.974Z,97.4
2017-07-20T03:42:26.417Z,97.3
2017-07-20T03:43:27.852Z,97.3
2017-07-20T03:44:29.290Z,98.0
2017-07-20T03:45:30.741Z,97.6
2017-07-20T03:46:32.187Z,95.5
2017-07-20T03:47:33.615Z,94.8
2017-07-20T03:48:35.065Z,96.9
2017-07-20T03:49:36.497Z,97.4
2017-07-20T03:50:37.948Z,97.6
2017-07-20T03:51:39.370Z,98.0
2017-07-20T03:52:40.803Z,96.6
2017-07-20T03:53:42.253Z,96.6
2017-07-20T03:54:43.671Z,98.1
2017-07-20T03:55:45.126Z,98.4
2017-07-20T03:56:46.556Z,98.2
2017-07-20T03:57:47.987Z,98.1
2017-07-20T03:58:49.413Z,98.2
2017-07-20T03:59:50.845Z,99.0
2017-07-20T04:00:52.303Z,97.5
2017-07-20T04:01:53.721Z,97.6
2017-07-20T04:02:55.151Z,98.8
2017-07-20T04:03:56.587Z,98.1
2017-07-20T04:04:58.005Z,98.0
2017-07-20T04:05:59.457Z,98.1
2017-07-20T04:07:00.892Z,96.9
2017-07-20T04:08:02.318Z,98.0
2017-07-20T04:09:03.738Z,97.4
2017-07-20T04:10:05.171Z,96.5
2017-07-20T04:11:06.619Z,95.7
2017-07-20T04:12:08.047Z,94.6
2017-07-20T04:13:09.470Z,94.8
2017-07-20T04:14:10.909Z,94.2
2017-07-20T04:15:12.344Z,92.7
2017-07-20T04:16:13.790Z,92.8
2017-07-20T04:17:15.218Z,92.8
2017-07-20T04:18:16.670Z,92.9
2017-07-20T04:19:18.092Z,92.7
2017-07-20T04:20:19.515Z,93.2
2017-07-20T04:21:20.970Z,91.8
2017-07-20T04:22:22.399Z,94.0
2017-07-20T04:23:23.825Z,93.0
2017-07-20T04:24:25.250Z,91.6
2017-07-20T04:25:26.688Z,91.6
2017-07-20T04:26:28.132Z,91.6
2017-07-20T04:27:30.051Z,92.8
2017-07-20T04:28:31.487Z,91.2
2017-07-20T04:29:32.917Z,91.7
2017-07-20T04:30:34.349Z,90.5
2017-07-20T04:31:35.796Z,90.5
2017-07-20T04:32:37.231Z,90.5
2017-07-20T04:33:38.679Z,90.2
2017-07-20T04:34:40.102Z,90.2
2017-07-20T04:35:41.541Z,90.5
2017-07-20T04:36:42.969Z,91.3
2017-07-20T04:37:44.398Z,90.5
2017-07-20T04:38:45.847Z,90.4
2017-07-20T04:39:47.278Z,90.0
2017-07-20T04:40:48.703Z,90.4
2017-07-20T04:41:50.156Z,90.4
2017-07-20T04:42:51.589Z,90.5
2017-07-20T04:43:53.042Z,91.0
2017-07-20T04:44:54.464Z,91.6
2017-07-20T04:45:55.898Z,90.2
2017-07-20T04:46:57.331Z,90.4
2017-07-20T04:47:58.780Z,90.2
2017-07-20T04:49:00.228Z,90.9
2017-07-20T04:50:01.658Z,92.1
2017-07-20T04:51:03.093Z,91.3
2017-07-20T04:52:04.524Z,90.9
2017-07-20T04:53:05.955Z,91.9
2017-07-20T04:54:07.409Z,91.0
2017-07-20T04:55:08.837Z,91.8
2017-07-20T04:56:10.268Z,91.1
2017-07-20T04:57:11.697Z,93.0
2017-07-20T04:58:13.123Z,90.9
2017-07-20T04:59:14.576Z,92.1
2017-07-20T05:00:16.003Z,92.9
2017-07-20T05:01:17.441Z,93.3
2017-07-20T05:02:18.868Z,91.7
2017-07-20T05:03:20.296Z,90.2
2017-07-20T05:04:21.747Z,91.8
2017-07-20T05:05:23.175Z,91.8
2017-07-20T05:06:24.619Z,93.1
2017-07-20T05:07:26.055Z,90.9
2017-07-20T05:08:27.493Z,91.9
2017-07-20T05:09:28.940Z,91.9
2017-07-20T05:10:30.369Z,92.0
2017-07-20T05:11:31.816Z,93.0
2017-07-20T05:12:33.244Z,92.0
2017-07-20T05:13:34.677Z,93.3
2017-07-20T05:14:36.112Z,91.8
2017-07-20T05:15:37.548Z,92.8
2017-07-20T05:16:39.002Z,91.7
2017-07-20T05:17:40.429Z,91.3
2017-07-20T05:18:41.856Z,90.3
2017-07-20T05:19:43.312Z,90.1
2017-07-20T05:20:44.724Z,90.6
2017-07-20T05:21:46.172Z,90.9
2017-07-20T05:22:47.602Z,91.7
2017-07-20T05:23:49.048Z,90.4
2017-07-20T05:24:50.507Z,90.1
2017-07-20T05:25:51.936Z,91.5
2017-07-20T05:26:53.378Z,92.2
2017-07-20T05:27:54.812Z,88.2
2017-07-20T05:28:56.243Z,88.3
2017-07-20T05:29:57.694Z,91.4
2017-07-20T05:30:59.123Z,91.2
2017-07-20T05:32:00.562Z,88.5
2017-07-20T05:33:02.000Z,88.5
2017-07-20T05:34:03.468Z,87.6
2017-07-20T05:35:04.908Z,87.8
2017-07-20T05:36:06.345Z,87.2
2017-07-20T05:37:07.781Z,87.7
2017-07-20T05:38:09.213Z,85.5
2017-07-20T05:39:10.656Z,84.5
2017-07-20T05:40:12.094Z,84.6
2017-07-20T05:41:13.526Z,84.1
2017-07-20T05:42:14.952Z,82.8
2017-07-20T05:43:16.394Z,83.3
2017-07-20T05:44:17.855Z,83.4
2017-07-20T05:45:19.277Z,82.9
2017-07-20T05:46:20.715Z,85.2
2017-07-20T05:47:22.165Z,86.5
2017-07-20T05:48:23.610Z,84.7
2017-07-20T05:49:25.046Z,83.6
2017-07-20T05:50:26.499Z,85.5
2017-07-20T05:51:27.928Z,83.6
2017-07-20T05:52:29.370Z,84.9
2017-07-20T05:53:30.806Z,85.6
2017-07-20T05:54:32.232Z,86.9
2017-07-20T05:55:33.686Z,84.1
2017-07-20T05:56:35.121Z,85.8
2017-07-20T05:57:36.554Z,83.4
2017-07-20T05:58:37.990Z,83.7
2017-07-20T05:59:39.450Z,84.1
2017-07-20T06:00:40.888Z,85.0
2017-07-20T06:01:42.327Z,85.9
2017-07-20T06:02:43.767Z,82.8
2017-07-20T06:03:45.200Z,83.2
2017-07-20T06:04:46.655Z,81.9
2017-07-20T06:05:48.094Z,82.1
2017-07-20T06:06:49.521Z,82.1
2017-07-20T06:07:50.958Z,81.3
2017-07-20T06:08:52.386Z,82.1
2017-07-20T06:09:53.847Z,82.3
2017-07-20T06:10:55.275Z,84.2
2017-07-20T06:11:56.709Z,83.0
2017-07-20T06:12:58.150Z,84.3
2017-07-20T06:13:59.584Z,86.4
2017-07-20T06:15:01.026Z,86.6
2017-07-20T06:16:02.472Z,83.8
2017-07-20T06:17:03.906Z,87.4
2017-07-20T06:18:05.333Z,86.9
2017-07-20T06:19:06.768Z,83.2
2017-07-20T06:20:08.221Z,84.9
2017-07-20T06:21:09.656Z,82.0
2017-07-20T06:22:11.082Z,82.0
2017-07-20T06:23:12.513Z,82.4
2017-07-20T06:24:13.945Z,85.4
2017-07-20T06:25:15.395Z,81.4
2017-07-20T06:26:16.836Z,81.2
2017-07-20T06:27:18.273Z,82.1
2017-07-20T06:28:19.718Z,81.0
2017-07-20T06:29:21.146Z,82.7
2017-07-20T06:30:22.587Z,80.7
2017-07-20T06:31:24.014Z,81.5
2017-07-20T06:32:25.460Z,80.4
2017-07-20T06:33:26.918Z,77.6
2017-07-20T06:34:28.359Z,77.9
2017-07-20T06:35:29.792Z,78.6
2017-07-20T06:36:31.220Z,79.5
2017-07-20T06:37:32.658Z,79.2
2017-07-20T06:38:34.114Z,78.8
2017-07-20T06:39:35.554Z,78.1
2017-07-20T06:40:36.985Z,77.1
2017-07-20T06:41:38.418Z,77.4
2017-07-20T06:42:39.857Z,77.3
2017-07-20T06:43:41.308Z,80.4
2017-07-20T06:44:42.741Z,77.7
2017-07-20T06:45:44.172Z,78.5
2017-07-20T06:46:45.610Z,75.7
2017-07-20T06:47:47.055Z,77.3
2017-07-20T06:48:48.495Z,77.9
2017-07-20T06:49:49.947Z,77.1
2017-07-20T06:50:51.387Z,76.6
2017-07-20T06:51:52.820Z,76.6
2017-07-20T06:52:54.260Z,77.0
2017-07-20T06:53:55.700Z,76.4
2017-07-20T06:54:57.158Z,75.7
2017-07-20T06:56:02.525Z,75.8
2017-07-20T06:57:07.505Z,75.3
2017-07-20T06:58:11.095Z,77.1
2017-07-20T06:59:17.372Z,75.7
2017-07-20T07:00:25.946Z,76.1
2017-07-20T07:01:31.053Z,74.6
2017-07-20T07:02:33.994Z,76.3
2017-07-20T07:03:35.506Z,74.5
2017-07-20T07:04:42.063Z,74.4
2017-07-20T07:05:46.476Z,75.1
2017-07-20T07:06:48.847Z,74.8
2017-07-20T07:07:53.501Z,74.5
2017-07-20T07:08:55.592Z,78.9
2017-07-20T07:10:02.133Z,76.4
2017-07-20T07:11:07.516Z,76.4
2017-07-20T07:12:11.067Z,77.0
2017-07-20T07:13:18.531Z,77.2
2017-07-20T07:14:24.981Z,76.0
2017-07-20T07:15:29.014Z,76.9
2017-07-20T07:16:35.274Z,76.0
2017-07-20T07:17:38.393Z,76.9
2017-07-20T07:18:46.546Z,78.0
2017-07-20T07:19:54.018Z,79.4
2017-07-20T07:21:01.520Z,78.1
2017-07-20T23:32:31.956Z,91.8
2017-07-20T23:33:33.385Z,91.6
2017-07-20T23:34:34.812Z,91.7
2017-07-20T23:35:36.229Z,91.9
2017-07-20T23:36:37.667Z,92.5
2017-07-20T23:37:39.105Z,92.8
2017-07-20T23:38:40.526Z,92.5
2017-07-20T23:39:41.955Z,92.7
2017-07-20T23:40:43.372Z,93.5
2017-07-20T23:41:44.799Z,93.3
2017-07-20T23:42:46.240Z,93.9
2017-07-20T23:43:47.666Z,93.8
2017-07-20T23:44:49.097Z,93.9
2017-07-20T23:45:50.521Z,93.9
2017-07-20T23:46:51.957Z,93.9
2017-07-20T23:47:53.394Z,94.1
2017-07-20T23:48:54.816Z,93.9
2017-07-20T23:49:56.249Z,94.0
2017-07-20T23:50:57.711Z,94.1
2017-07-20T23:51:59.135Z,93.8
2017-07-20T23:53:00.577Z,93.2
2017-07-20T23:54:02.007Z,93.9
2017-07-20T23:55:03.440Z,93.2
2017-07-20T23:56:04.883Z,91.6
2017-07-20T23:57:06.309Z,92.3
2017-07-20T23:58:07.736Z,92.6
2017-07-20T23:59:09.232Z,92.6
